Time;durP1;ratioP1;P1;durP2;ratioP2;P2;SDS_P1;SDS_P2;PMS_P1;PMS_P2;Temp;Humidity;BMP_temperature;BMP_pressure;BME280_temperature;BME280_humidity;BME280_pressure;Samples;Min_cycle;Max_cycle;Signal;HPM_P1;HPM_P2
2021/08/03 00:00:00;;;;;;;18.67;3.05;;;45.60;30.50;;;;;;5080301;28;20404;-65
2021/08/03 00:02:26;;;;;;;11.25;2.90;;;46.60;36.80;;;;;;5071061;28;20213;-66
2021/08/03 00:04:57;;;;;;;11.00;3.08;;;46.60;38.80;;;;;;5075246;28;20512;-68
2021/08/03 00:07:25;;;;;;;10.65;2.90;;;46.00;15.20;;;;;;5078346;28;20032;-67
2021/08/03 00:09:57;;;;;;;17.42;3.55;;;46.00;41.80;;;;;;5080483;28;20028;-67
2021/08/03 00:12:24;;;;;;;24.02;3.72;;;46.00;38.60;;;;;;5083595;28;20033;-67
2021/08/03 00:14:54;;;;;;;6.35;3.00;;;45.90;16.30;;;;;;5085252;28;20028;-67
2021/08/03 00:17:24;;;;;;;13.15;3.92;;;46.00;16.00;;;;;;5078767;28;20066;-66
2021/08/03 00:19:51;;;;;;;14.77;3.13;;;46.00;15.80;;;;;;5075734;28;20577;-66
2021/08/03 00:22:18;;;;;;;14.90;3.33;;;45.90;15.60;;;;;;5076389;28;20063;-66
2021/08/03 00:24:45;;;;;;;7.85;2.85;;;45.70;16.20;;;;;;5072935;28;20074;-66
2021/08/03 00:27:11;;;;;;;11.88;3.05;;;45.50;15.00;;;;;;5078531;28;20588;-66
2021/08/03 00:29:39;;;;;;;9.55;3.00;;;45.40;15.30;;;;;;5080710;28;20148;-67
2021/08/03 00:32:06;;;;;;;8.73;2.88;;;45.40;15.60;;;;;;5084183;28;20057;-66
2021/08/03 00:34:36;;;;;;;6.30;2.90;;;45.30;15.80;;;;;;5083632;28;20146;-66
2021/08/03 00:37:06;;;;;;;12.95;3.65;;;45.20;16.00;;;;;;5078711;28;20134;-67
2021/08/03 00:39:34;;;;;;;6.82;2.90;;;45.10;15.80;;;;;;5073037;28;20060;-66
2021/08/03 00:42:04;;;;;;;10.70;3.17;;;45.00;15.50;;;;;;5077894;28;20036;-67
2021/08/03 00:44:45;;;;;;;11.88;3.22;;;45.00;15.90;;;;;;5071921;28;20252;-66
2021/08/03 00:47:13;;;;;;;10.40;2.83;;;44.90;15.90;;;;;;5073794;28;20024;-67
2021/08/03 00:49:41;;;;;;;8.82;3.00;;;44.20;32.80;;;;;;5075909;28;20074;-66
2021/08/03 00:52:09;;;;;;;14.40;3.85;;;44.70;36.70;;;;;;5071562;28;20158;-65
2021/08/03 00:54:36;;;;;;;7.63;3.17;;;44.00;34.70;;;;;;5075928;28;20039;-66
2021/08/03 00:57:05;;;;;;;14.85;3.17;;;44.40;15.30;;;;;;5073250;28;20078;-64
2021/08/03 00:59:32;;;;;;;7.05;3.13;;;44.30;30.90;;;;;;5071097;28;20108;-65
2021/08/03 01:01:59;;;;;;;14.38;2.65;;;44.40;15.70;;;;;;5070247;28;20404;-66
2021/08/03 01:04:26;;;;;;;13.57;3.13;;;44.40;15.80;;;;;;5074160;28;20158;-67
2021/08/03 01:07:07;;;;;;;9.30;2.60;;;44.20;15.80;;;;;;5072849;28;20026;-66
2021/08/03 01:09:56;;;;;;;4.63;2.00;;;44.10;14.60;;;;;;5072262;28;20028;-66
2021/08/03 01:12:50;;;;;;;8.50;1.98;;;44.10;15.00;;;;;;5075510;28;20081;-66
2021/08/03 01:15:24;;;;;;;5.30;2.05;;;44.10;15.00;;;;;;5075423;28;20085;-66
2021/08/03 01:18:14;;;;;;;4.30;2.10;;;44.30;34.00;;;;;;5076840;28;20173;-66
2021/08/03 01:21:14;;;;;;;7.38;2.00;;;43.90;14.70;;;;;;5069208;28;20538;-67
2021/08/03 01:24:10;;;;;;;5.35;1.75;;;43.80;14.20;;;;;;5068217;28;20088;-67
2021/08/03 01:27:04;;;;;;;5.00;1.77;;;43.70;14.50;;;;;;5069504;28;20073;-66
2021/08/03 01:29:32;;;;;;;6.05;1.75;;;43.60;14.40;;;;;;5070207;28;20084;-66
2021/08/03 01:32:08;;;;;;;7.68;1.60;;;43.50;14.80;;;;;;5065576;28;20037;-66
2021/08/03 01:34:39;;;;;;;3.15;1.40;;;43.50;14.10;;;;;;5071366;28;20053;-66
2021/08/03 01:37:08;;;;;;;7.30;1.85;;;43.50;14.60;;;;;;5073823;28;20531;-65
2021/08/03 01:39:40;;;;;;;7.00;1.70;;;43.30;28.10;;;;;;5073665;28;20032;-64
2021/08/03 01:42:08;;;;;;;10.93;1.70;;;43.60;32.10;;;;;;5075586;28;20077;-65
2021/08/03 01:44:37;;;;;;;13.45;1.52;;;43.00;48.30;;;;;;5076621;28;20082;-65
2021/08/03 01:47:05;;;;;;;5.38;1.38;;;43.70;50.10;;;;;;5064479;28;20032;-64
2021/08/03 01:49:36;;;;;;;3.47;1.65;;;43.40;20.60;;;;;;5066327;28;20036;-64
2021/08/03 01:52:06;;;;;;;4.05;1.80;;;42.50;48.60;;;;;;5076428;28;20449;-64
2021/08/03 01:54:33;;;;;;;6.57;1.75;;;43.00;24.90;;;;;;5073571;28;20055;-64
2021/08/03 01:57:01;;;;;;;10.68;1.63;;;43.20;18.40;;;;;;5068897;28;20179;-64
2021/08/03 01:59:30;;;;;;;6.53;1.75;;;43.20;17.80;;;;;;5072041;28;20120;-64
2021/08/03 02:01:57;;;;;;;10.45;1.83;;;42.40;32.20;;;;;;5069359;28;20151;-65
2021/08/03 02:04:24;;;;;;;4.97;1.90;;;43.10;52.00;;;;;;5069395;28;20115;-64
2021/08/03 02:06:52;;;;;;;4.90;1.55;;;42.90;20.50;;;;;;5070529;28;20055;-64
2021/08/03 02:09:21;;;;;;;9.43;1.77;;;42.60;27.50;;;;;;5067607;28;20037;-65
2021/08/03 02:11:48;;;;;;;9.98;2.35;;;43.00;50.40;;;;;;5069962;28;20123;-66
2021/08/03 02:14:16;;;;;;;7.05;2.00;;;42.60;40.00;;;;;;5069124;28;20123;-66
2021/08/03 02:16:44;;;;;;;7.18;2.05;;;42.50;26.40;;;;;;5066125;28;20512;-66
2021/08/03 02:19:10;;;;;;;6.18;1.70;;;42.70;50.50;;;;;;5069541;28;20083;-65
2021/08/03 02:21:38;;;;;;;7.63;1.85;;;42.10;23.80;;;;;;5070608;28;20029;-66
2021/08/03 02:24:04;;;;;;;13.90;2.20;;;42.10;23.20;;;;;;5074489;28;20024;-66
2021/08/03 02:26:31;;;;;;;8.75;1.50;;;42.00;17.20;;;;;;5069214;28;20073;-67
2021/08/03 02:28:58;;;;;;;7.60;2.05;;;;;;;;;;5066546;28;20034;-66
2021/08/03 02:31:39;;;;;;;7.57;2.05;;;41.60;21.60;;;;;;5069908;28;20021;-66
2021/08/03 02:34:13;;;;;;;7.93;1.75;;;41.60;17.60;;;;;;5068234;28;20093;-66
2021/08/03 02:36:46;;;;;;;5.93;1.90;;;40.80;44.50;;;;;;5070739;28;20493;-65
2021/08/03 02:39:15;;;;;;;11.02;2.20;;;40.80;47.20;;;;;;5065621;28;20470;-66
2021/08/03 02:41:43;;;;;;;12.88;2.28;;;41.40;46.10;;;;;;5064564;28;20074;-66
2021/08/03 02:44:12;;;;;;;7.18;2.13;;;40.80;41.60;;;;;;5072597;28;20044;-65
2021/08/03 02:46:42;;;;;;;10.80;2.33;;;40.90;18.20;;;;;;5069065;28;20077;-67
2021/08/03 02:49:14;;;;;;;10.18;2.63;;;41.00;39.10;;;;;;5069651;28;20074;-66
2021/08/03 02:51:41;;;;;;;18.58;2.97;;;40.60;18.00;;;;;;5068776;28;20024;-65
2021/08/03 02:54:25;;;;;;;17.35;2.97;;;40.50;17.90;;;;;;5078222;28;20109;-67
2021/08/03 02:56:55;;;;;;;18.00;3.00;;;40.60;36.20;;;;;;5074897;28;20057;-66
2021/08/03 02:59:26;;;;;;;18.05;3.42;;;40.50;38.60;;;;;;5070618;28;20114;-66
2021/08/03 03:01:56;;;;;;;20.30;3.35;;;40.30;34.00;;;;;;5080389;28;21587;-65
2021/08/03 03:05:03;;;;;;;40.97;4.25;;;40.20;19.40;;;;;;5070725;28;20057;-66
2021/08/03 03:07:40;;;;;;;15.80;3.13;;;40.10;19.60;;;;;;5066527;28;20079;-66
2021/08/03 03:10:14;;;;;;;14.18;3.35;;;39.80;19.80;;;;;;5079173;28;20034;-66
2021/08/03 03:12:43;;;;;;;13.63;2.80;;;39.60;34.70;;;;;;5079127;28;20063;-65
2021/08/03 03:15:16;;;;;;;12.82;2.83;;;39.80;19.80;;;;;;5080296;28;20097;-65
2021/08/03 03:17:44;;;;;;;17.27;2.72;;;39.70;34.50;;;;;;5078473;28;20150;-66
2021/08/03 03:20:12;;;;;;;17.30;3.60;;;39.60;20.60;;;;;;5078904;28;20059;-65
2021/08/03 03:22:43;;;;;;;33.20;3.92;;;40.20;21.10;;;;;;5080609;28;20504;-66
2021/08/03 03:25:12;;;;;;;27.52;4.10;;;40.70;20.70;;;;;;5084667;28;20068;-65
2021/08/03 03:27:41;;;;;;;30.35;5.10;;;41.10;21.30;;;;;;5067070;28;20080;-63
2021/08/03 03:30:09;;;;;;;27.23;4.22;;;41.00;21.20;;;;;;5083802;28;20116;-64
2021/08/03 03:32:36;;;;;;;12.50;2.70;;;41.10;21.00;;;;;;5080078;28;20078;-66
2021/08/03 03:35:03;;;;;;;18.42;3.03;;;41.10;17.40;;;;;;5081829;28;20085;-68
2021/08/03 03:37:31;;;;;;;13.68;2.67;;;41.50;35.00;;;;;;5080021;28;20069;-65
2021/08/03 03:39:58;;;;;;;22.20;2.58;;;41.60;27.60;;;;;;5079258;28;20529;-65
2021/08/03 03:42:34;;;;;;;20.77;3.20;;;41.40;29.10;;;;;;5078633;28;20589;-66
2021/08/03 03:45:02;;;;;;;23.67;3.65;;;41.60;16.40;;;;;;5078796;28;20109;-66
2021/08/03 03:47:32;;;;;;;18.30;3.17;;;42.10;24.90;;;;;;5079589;28;20074;-64
2021/08/03 03:50:06;;;;;;;17.45;3.55;;;41.70;16.80;;;;;;5078212;28;20073;-65
2021/08/03 03:52:39;;;;;;;15.95;3.35;;;41.70;17.00;;;;;;5076847;28;20050;-65
2021/08/03 03:55:09;;;;;;;30.60;4.60;;;42.10;26.70;;;;;;5082881;28;20601;-66
2021/08/03 03:57:36;;;;;;;14.90;3.80;;;41.50;16.20;;;;;;5080426;28;20083;-65
2021/08/03 04:00:03;;;;;;;23.67;3.63;;;41.60;16.20;;;;;;5082133;28;20069;-65
2021/08/03 04:02:31;;;;;;;31.95;3.55;;;41.20;30.50;;;;;;5079716;28;20054;-65
2021/08/03 04:05:01;;;;;;;33.05;4.65;;;41.50;15.60;;;;;;5083666;28;20077;-65
2021/08/03 04:07:30;;;;;;;22.98;4.03;;;41.40;16.20;;;;;;5087861;28;20521;-65
2021/08/03 04:10:09;;;;;;;25.17;4.30;;;41.30;16.80;;;;;;5089417;28;20062;-65
2021/08/03 04:12:36;;;;;;;22.92;4.35;;;41.10;17.10;;;;;;5082460;28;20087;-65
2021/08/03 04:15:04;;;;;;;39.08;5.05;;;40.90;18.00;;;;;;5079069;28;20067;-65
2021/08/03 04:17:30;;;;;;;35.05;5.28;;;40.80;32.00;;;;;;5081242;28;20087;-64
2021/08/03 04:19:57;;;;;;;37.45;5.30;;;40.60;18.50;;;;;;5080858;28;20078;-65
2021/08/03 04:22:24;;;;;;;37.55;4.75;;;40.30;36.20;;;;;;5084505;28;20073;-65
2021/08/03 04:24:51;;;;;;;25.85;3.88;;;40.10;30.90;;;;;;5074941;28;20077;-65
2021/08/03 04:27:18;;;;;;;35.17;4.20;;;39.90;42.10;;;;;;5078075;28;20088;-63
2021/08/03 04:29:45;;;;;;;30.15;4.10;;;39.80;18.10;;;;;;5076328;28;20060;-65
2021/08/03 04:32:12;;;;;;;29.67;3.90;;;39.40;34.10;;;;;;5078033;28;20073;-64
2021/08/03 04:34:38;;;;;;;30.13;4.07;;;40.10;38.40;;;;;;5075945;28;20032;-64
2021/08/03 04:37:07;;;;;;;34.38;5.00;;;39.60;35.40;;;;;;5081580;28;20508;-64
2021/08/03 04:39:34;;;;;;;35.15;4.88;;;40.10;38.50;;;;;;5082322;28;20097;-65
2021/08/03 04:42:00;;;;;;;27.73;4.10;;;39.90;49.00;;;;;;5086274;28;20404;-66
2021/08/03 04:44:27;;;;;;;34.42;4.18;;;39.40;47.70;;;;;;5079372;28;20143;-64
2021/08/03 04:46:53;;;;;;;39.60;3.88;;;39.40;17.40;;;;;;5081184;28;20119;-65
2021/08/03 04:49:20;;;;;;;43.83;4.78;;;;;;;;;;5077640;28;20116;-65
2021/08/03 04:51:47;;;;;;;54.08;4.20;;;39.20;19.00;;;;;;5079562;28;20054;-65
2021/08/03 04:54:13;;;;;;;33.95;4.32;;;39.30;27.40;;;;;;5078852;28;20545;-64
2021/08/03 04:56:40;;;;;;;46.17;4.28;;;39.30;48.50;;;;;;5076154;28;20509;-64
2021/08/03 04:59:07;;;;;;;30.83;3.30;;;39.30;18.30;;;;;;5081916;28;20493;-65
2021/08/03 05:01:33;;;;;;;30.35;3.58;;;39.50;48.20;;;;;;5074960;28;20056;-65
2021/08/03 05:04:00;;;;;;;32.50;4.22;;;39.20;15.70;;;;;;5079237;28;20494;-65
2021/08/03 05:06:27;;;;;;;23.17;4.50;;;39.20;16.00;;;;;;5081110;28;20081;-65
2021/08/03 05:08:53;;;;;;;40.95;4.90;;;39.20;15.50;;;;;;5073668;28;20398;-65
2021/08/03 05:11:20;;;;;;;42.55;5.72;;;38.80;35.80;;;;;;5076963;28;20156;-65
2021/08/03 05:13:46;;;;;;;48.90;6.28;;;38.40;38.10;;;;;;5079954;28;20576;-64
2021/08/03 05:16:13;;;;;;;45.30;4.95;;;37.60;41.10;;;;;;5073315;28;20089;-64
2021/08/03 05:18:40;;;;;;;37.75;4.43;;;39.10;28.20;;;;;;5072457;28;20080;-64
2021/08/03 05:21:06;;;;;;;23.30;4.72;;;38.80;30.60;;;;;;5077876;28;20098;-65
2021/08/03 05:23:33;;;;;;;26.48;4.25;;;38.80;13.90;;;;;;5078888;28;20024;-65
2021/08/03 05:25:59;;;;;;;31.27;4.88;;;38.90;30.60;;;;;;5076643;28;20040;-64
2021/08/03 05:28:26;;;;;;;38.75;3.92;;;38.80;15.10;;;;;;5080127;28;20434;-64
2021/08/03 05:30:52;;;;;;;31.88;4.03;;;38.80;14.10;;;;;;5078302;28;20113;-64
2021/08/03 05:33:19;;;;;;;18.77;3.50;;;38.80;14.40;;;;;;5074635;28;20080;-64
2021/08/03 05:35:45;;;;;;;15.70;3.17;;;38.80;14.70;;;;;;5077109;28;20084;-65
2021/08/03 05:38:12;;;;;;;21.00;3.92;;;38.70;14.60;;;;;;5070087;28;20297;-65
2021/08/03 05:40:38;;;;;;;24.40;3.42;;;38.70;14.40;;;;;;5072966;28;20084;-64
2021/08/03 05:43:05;;;;;;;29.35;4.10;;;38.60;14.30;;;;;;5077256;28;20105;-64
2021/08/03 05:45:31;;;;;;;22.20;4.30;;;38.60;14.40;;;;;;5073245;28;20064;-64
2021/08/03 05:47:58;;;;;;;28.50;5.25;;;38.60;14.20;;;;;;5075216;28;20092;-64
2021/08/03 05:50:25;;;;;;;33.47;6.40;;;38.60;15.00;;;;;;5072161;28;20434;-65
2021/08/03 05:52:51;;;;;;;30.75;5.88;;;38.50;14.40;;;;;;5076270;28;20104;-64
2021/08/03 05:55:18;;;;;;;38.40;6.43;;;38.50;14.80;;;;;;5071742;28;20130;-64
2021/08/03 05:57:44;;;;;;;28.90;5.78;;;38.50;15.00;;;;;;5076849;28;20073;-64
2021/08/03 06:00:12;;;;;;;30.88;5.45;;;38.40;15.70;;;;;;5073327;28;20076;-63
2021/08/03 06:02:38;;;;;;;17.95;4.53;;;38.30;15.70;;;;;;5073829;28;20099;-64
2021/08/03 06:05:05;;;;;;;19.63;4.07;;;38.10;20.40;;;;;;5071370;28;20173;-64
2021/08/03 06:07:41;;;;;;;35.30;4.15;;;38.10;15.70;;;;;;5075489;28;20081;-64
2021/08/03 06:10:12;;;;;;;24.52;4.68;;;38.10;16.30;;;;;;5074610;28;20099;-63
2021/08/03 06:12:40;;;;;;;30.45;4.68;;;38.00;16.30;;;;;;5073739;28;20081;-64
2021/08/03 06:15:07;;;;;;;32.53;4.78;;;37.90;16.90;;;;;;5071662;28;20124;-64
2021/08/03 06:17:43;;;;;;;25.75;4.50;;;37.70;16.70;;;;;;5073831;28;20097;-64
2021/08/03 06:20:11;;;;;;;26.02;4.40;;;37.60;17.60;;;;;;5073734;28;20077;-65
2021/08/03 06:22:39;;;;;;;25.60;4.90;;;37.60;17.70;;;;;;5075886;28;20069;-65
2021/08/03 06:25:07;;;;;;;27.33;4.82;;;37.40;33.50;;;;;;5074944;28;20027;-65
2021/08/03 06:27:34;;;;;;;24.83;4.18;;;37.40;17.30;;;;;;5076176;28;20091;-64
2021/08/03 06:30:05;;;;;;;33.10;4.03;;;37.30;17.70;;;;;;5075969;28;20088;-65
2021/08/03 06:32:32;;;;;;;24.52;3.83;;;37.20;17.00;;;;;;5072216;28;20072;-66
2021/08/03 06:35:00;;;;;;;32.38;3.80;;;37.10;17.20;;;;;;5073159;28;20719;-64
2021/08/03 06:37:26;;;;;;;16.20;3.13;;;37.00;16.70;;;;;;5072960;28;20538;-65
2021/08/03 06:39:53;;;;;;;22.27;3.25;;;37.00;17.20;;;;;;5071912;28;20545;-64
2021/08/03 06:42:51;;;;;;;21.42;3.30;;;37.00;16.70;;;;;;5070883;28;20089;-63
2021/08/03 06:45:30;;;;;;;23.95;3.10;;;36.90;17.10;;;;;;5075373;28;21460;-65
2021/08/03 06:48:30;;;;;;;107.82;10.20;;;36.80;16.80;;;;;;5076514;28;20085;-65
2021/08/03 06:51:03;;;;;;;51.65;5.20;;;36.70;18.30;;;;;;5078396;28;20085;-65
2021/08/03 06:53:29;;;;;;;14.10;2.10;;;36.70;17.50;;;;;;5075205;28;20131;-66
2021/08/03 06:56:01;;;;;;;11.70;2.45;;;36.70;16.80;;;;;;5075920;28;20768;-65
2021/08/03 06:59:03;;;;;;;14.07;1.83;;;36.60;16.60;;;;;;5079366;28;20084;-65
2021/08/03 07:01:51;;;;;;;17.88;3.00;;;36.60;17.40;;;;;;5078863;28;20163;-65
2021/08/03 07:04:31;;;;;;;18.17;2.55;;;36.50;17.70;;;;;;5078157;28;20114;-66
2021/08/03 07:07:00;;;;;;;9.32;2.05;;;36.50;17.20;;;;;;5078356;28;20074;-65
2021/08/03 07:09:28;;;;;;;9.15;1.67;;;36.50;16.70;;;;;;5077529;28;20073;-66
2021/08/03 07:11:55;;;;;;;5.82;1.35;;;36.50;17.40;;;;;;5079896;28;20084;-65
2021/08/03 07:14:29;;;;;;;18.73;2.22;;;36.40;16.10;;;;;;5076665;28;20081;-65
2021/08/03 07:16:56;;;;;;;7.55;1.75;;;36.50;17.00;;;;;;5078587;28;20089;-64
2021/08/03 07:19:23;;;;;;;2.75;1.38;;;36.40;16.70;;;;;;5076487;28;20080;-65
2021/08/03 07:21:53;;;;;;;6.72;1.38;;;36.30;15.50;;;;;;5075850;28;20407;-64
2021/08/03 07:24:19;;;;;;;3.50;1.30;;;36.30;15.40;;;;;;5076238;28;20079;-65
2021/08/03 07:26:46;;;;;;;10.02;1.00;;;36.20;15.30;;;;;;5078465;28;20429;-64
2021/08/03 07:29:12;;;;;;;4.53;1.38;;;36.20;15.80;;;;;;5079128;28;20572;-64
2021/08/03 07:31:41;;;;;;;5.75;1.20;;;36.10;15.90;;;;;;5077364;28;20115;-65
2021/08/03 07:34:10;;;;;;;3.95;1.10;;;36.10;15.60;;;;;;5078043;28;20076;-65
2021/08/03 07:36:37;;;;;;;4.43;1.15;;;36.10;15.60;;;;;;5078219;28;20089;-65
2021/08/03 07:39:07;;;;;;;2.80;1.00;;;36.10;16.00;;;;;;5078152;28;20061;-64
2021/08/03 07:41:35;;;;;;;4.20;1.27;;;36.10;15.80;;;;;;5074907;28;20077;-64
2021/08/03 07:44:03;;;;;;;2.90;1.17;;;36.10;15.80;;;;;;5075664;28;20113;-64
2021/08/03 07:46:31;;;;;;;1.90;0.98;;;35.90;15.90;;;;;;5078276;28;20438;-65
2021/08/03 07:48:58;;;;;;;12.05;1.13;;;35.90;15.90;;;;;;5076328;28;20553;-65
2021/08/03 07:51:26;;;;;;;7.28;1.17;;;35.80;16.10;;;;;;5081657;28;20065;-64
2021/08/03 07:53:52;;;;;;;7.70;1.20;;;35.80;16.70;;;;;;5078401;28;20100;-65
2021/08/03 07:56:20;;;;;;;5.75;1.30;;;35.60;36.80;;;;;;5075400;28;20073;-65
2021/08/03 07:58:47;;;;;;;5.63;1.40;;;35.60;17.80;;;;;;5076913;28;20025;-65
2021/08/03 08:01:14;;;;;;;4.18;1.17;;;35.50;18.20;;;;;;5080877;28;20024;-64
2021/08/03 08:03:40;;;;;;;3.75;1.00;;;35.60;38.50;;;;;;5077801;28;20049;-65
2021/08/03 08:06:07;;;;;;;6.50;1.30;;;35.60;17.10;;;;;;5080084;28;20049;-64
2021/08/03 08:08:34;;;;;;;6.03;1.10;;;35.50;42.70;;;;;;5078723;28;20065;-65
2021/08/03 08:11:00;;;;;;;5.07;1.30;;;35.00;47.50;;;;;;5074855;28;20040;-65
2021/08/03 08:13:27;;;;;;;6.95;1.23;;;34.10;18.20;;;;;;5078960;28;20097;-64
2021/08/03 08:15:54;;;;;;;6.93;1.42;;;35.20;49.20;;;;;;5074790;28;20101;-65
2021/08/03 08:18:20;;;;;;;8.52;1.15;;;35.10;16.30;;;;;;5079102;28;21173;-65
2021/08/03 08:20:47;;;;;;;12.43;1.30;;;35.10;17.00;;;;;;5072994;28;20066;-65
2021/08/03 08:23:16;;;;;;;9.25;1.50;;;35.10;19.20;;;;;;5078939;28;20092;-64
2021/08/03 08:25:42;;;;;;;10.15;1.48;;;;;;;;;;5077900;28;20448;-64
2021/08/03 08:28:09;;;;;;;10.55;1.30;;;;;;;;;;5076940;28;20076;-64
2021/08/03 08:30:37;;;;;;;11.32;1.70;;;35.20;22.50;;;;;;5074272;28;20481;-64
2021/08/03 08:33:04;;;;;;;7.30;1.38;;;34.90;43.40;;;;;;5077799;28;20032;-64
2021/08/03 08:35:31;;;;;;;9.77;1.83;;;34.80;23.60;;;;;;5072809;28;20482;-64
2021/08/03 08:38:00;;;;;;;11.02;1.35;;;35.00;47.70;;;;;;5079157;28;20061;-64
2021/08/03 08:40:27;;;;;;;8.77;1.50;;;34.80;41.00;;;;;;5084085;28;20140;-65
2021/08/03 08:42:53;;;;;;;8.57;1.35;;;34.70;45.00;;;;;;5088496;28;20020;-65
2021/08/03 08:45:20;;;;;;;4.78;1.13;;;34.80;25.10;;;;;;5083416;28;20081;-65
2021/08/03 08:47:48;;;;;;;2.25;0.98;;;34.70;16.70;;;;;;5084100;28;20065;-65
2021/08/03 08:50:22;;;;;;;4.00;1.20;;;34.70;16.60;;;;;;5073074;28;20076;-63
2021/08/03 08:52:53;;;;;;;4.35;1.05;;;34.70;15.70;;;;;;5075312;28;20040;-64
2021/08/03 08:55:23;;;;;;;6.90;1.10;;;34.60;48.30;;;;;;5075791;28;20086;-64
2021/08/03 08:57:51;;;;;;;8.77;1.30;;;;;;;;;;5081001;28;20058;-64
2021/08/03 09:00:20;;;;;;;6.90;1.25;;;34.70;19.30;;;;;;5079676;28;20099;-62
2021/08/03 09:02:53;;;;;;;6.72;1.05;;;34.70;46.90;;;;;;5081353;28;20032;-63
2021/08/03 09:05:30;;;;;;;1.83;0.90;;;33.90;47.20;;;;;;5079002;28;20031;-64
2021/08/03 09:07:58;;;;;;;4.72;1.02;;;34.60;21.80;;;;;;5074579;28;20143;-63
2021/08/03 09:10:40;;;;;;;2.30;0.90;;;34.60;47.90;;;;;;5075122;28;20047;-63
2021/08/03 09:13:20;;;;;;;2.78;0.88;;;34.50;19.40;;;;;;5072484;28;20130;-63
2021/08/03 09:16:00;;;;;;;2.20;1.10;;;34.60;15.20;;;;;;5072335;28;20040;-62
2021/08/03 09:18:26;;;;;;;6.38;1.20;;;34.30;26.80;;;;;;5072381;28;20448;-62
2021/08/03 09:20:54;;;;;;;5.03;1.75;;;34.60;50.60;;;;;;5074589;28;20035;-64
2021/08/03 09:23:20;;;;;;;5.18;1.15;;;;;;;;;;5076334;28;20546;-64
2021/08/03 09:25:56;;;;;;;4.07;0.85;;;34.50;18.60;;;;;;5072492;28;20027;-63
2021/08/03 09:28:23;;;;;;;2.40;0.90;;;34.50;16.20;;;;;;5074310;28;20101;-63
2021/08/03 09:30:50;;;;;;;3.65;1.38;;;34.40;42.90;;;;;;5077427;28;20437;-64
2021/08/03 09:33:25;;;;;;;6.05;1.10;;;34.50;29.80;;;;;;5073327;28;20037;-64
2021/08/03 09:35:52;;;;;;;2.35;1.00;;;34.10;15.60;;;;;;5072014;28;20135;-64
2021/08/03 09:38:20;;;;;;;3.38;1.13;;;34.40;45.00;;;;;;5075108;28;20119;-64
2021/08/03 09:40:48;;;;;;;4.20;1.00;;;34.20;17.80;;;;;;5071442;28;20615;-63
2021/08/03 09:43:17;;;;;;;10.02;1.27;;;34.00;46.50;;;;;;5075015;28;20120;-64
2021/08/03 09:45:43;;;;;;;8.45;1.40;;;;;;;;;;5072084;28;20088;-64
2021/08/03 09:48:10;;;;;;;2.13;1.10;;;;;;;;;;5072149;28;20189;-63
2021/08/03 09:50:59;;;;;;;6.50;1.20;;;34.40;16.40;;;;;;5073740;28;20529;-63
2021/08/03 09:53:36;;;;;;;6.13;1.27;;;34.40;20.70;;;;;;5071574;28;20108;-63
2021/08/03 09:56:04;;;;;;;5.68;1.40;;;34.50;18.00;;;;;;5071772;28;20068;-64
2021/08/03 09:58:33;;;;;;;9.07;1.50;;;34.10;50.70;;;;;;5072577;28;20052;-63
2021/08/03 10:01:26;;;;;;;11.25;1.95;;;34.20;47.30;;;;;;5079036;28;20043;-64
2021/08/03 10:03:54;;;;;;;7.68;1.70;;;34.40;49.30;;;;;;5072453;28;20041;-63
2021/08/03 10:06:21;;;;;;;5.05;1.23;;;34.00;47.20;;;;;;5075437;28;20046;-63
2021/08/03 10:08:49;;;;;;;7.75;1.20;;;34.20;47.30;;;;;;5071191;28;20024;-62
2021/08/03 10:11:17;;;;;;;3.40;1.17;;;34.10;20.00;;;;;;5074143;28;20060;-63
2021/08/03 10:13:45;;;;;;;3.90;1.50;;;34.20;45.10;;;;;;5074664;28;20070;-64
2021/08/03 10:16:12;;;;;;;3.50;1.40;;;34.20;17.80;;;;;;5074075;28;20067;-64
2021/08/03 10:18:44;;;;;;;4.00;1.27;;;34.00;18.10;;;;;;5073625;28;20083;-63
2021/08/03 10:21:29;;;;;;;7.07;1.48;;;34.00;34.10;;;;;;5075142;28;20087;-64
2021/08/03 10:24:22;;;;;;;6.95;1.20;;;34.00;18.70;;;;;;5074424;28;20164;-63
2021/08/03 10:27:13;;;;;;;4.93;1.17;;;33.80;42.10;;;;;;5069947;28;20566;-63
2021/08/03 10:29:54;;;;;;;5.88;1.30;;;33.80;32.30;;;;;;5072176;28;20055;-64
2021/08/03 10:32:43;;;;;;;11.82;1.60;;;33.70;28.90;;;;;;5073253;28;20547;-64
2021/08/03 10:35:18;;;;;;;8.85;1.60;;;33.80;36.30;;;;;;5073476;28;20214;-62
2021/08/03 10:38:00;;;;;;;9.43;1.40;;;33.60;32.50;;;;;;5073830;28;20482;-62
2021/08/03 10:40:46;;;;;;;9.75;1.70;;;33.80;18.40;;;;;;5072642;28;20480;-63
2021/08/03 10:43:33;;;;;;;10.77;1.42;;;33.80;32.20;;;;;;5074682;28;20128;-63
2021/08/03 10:46:08;;;;;;;6.13;1.30;;;33.70;18.50;;;;;;5066181;28;20080;-63
2021/08/03 10:48:38;;;;;;;6.35;1.45;;;33.70;18.50;;;;;;5071527;28;20126;-64
2021/08/03 10:51:16;;;;;;;7.65;1.38;;;33.70;41.50;;;;;;5072668;28;20126;-63
2021/08/03 10:53:52;;;;;;;3.22;1.48;;;33.60;18.50;;;;;;5072939;28;21546;-63
2021/08/03 10:56:19;;;;;;;7.13;1.43;;;34.00;37.30;;;;;;5075098;28;20096;-64
2021/08/03 10:58:46;;;;;;;6.47;1.35;;;33.10;40.20;;;;;;5069620;28;20533;-64
2021/08/03 11:01:42;;;;;;;6.28;1.10;;;33.40;34.30;;;;;;5071617;28;20423;-63
2021/08/03 11:04:09;;;;;;;7.57;1.30;;;33.50;18.80;;;;;;5072700;28;20084;-64
2021/08/03 11:06:37;;;;;;;4.63;1.10;;;33.50;33.70;;;;;;5071875;28;20592;-63
2021/08/03 11:09:32;;;;;;;10.60;1.33;;;34.00;48.50;;;;;;5075232;28;20072;-64
2021/08/03 11:12:36;;;;;;;2.97;1.02;;;33.60;39.70;;;;;;5071685;28;20089;-63
2021/08/03 11:15:21;;;;;;;6.75;1.40;;;33.40;48.20;;;;;;5070187;28;20037;-62
2021/08/03 11:18:01;;;;;;;7.00;1.92;;;33.20;36.20;;;;;;5074078;28;20087;-63
2021/08/03 11:20:37;;;;;;;4.85;1.08;;;34.20;18.30;;;;;;5074460;28;20055;-62
2021/08/03 11:23:05;;;;;;;6.80;1.07;;;33.40;18.40;;;;;;5073253;28;20028;-63
2021/08/03 11:25:32;;;;;;;6.10;1.08;;;33.40;18.20;;;;;;5073778;28;20076;-63
2021/08/03 11:28:11;;;;;;;3.60;1.00;;;33.30;42.60;;;;;;5071306;28;20077;-63
2021/08/03 11:30:41;;;;;;;3.40;1.20;;;33.40;18.40;;;;;;5070774;28;20070;-63
2021/08/03 11:33:08;;;;;;;5.20;1.40;;;33.40;18.20;;;;;;5079282;28;20065;-63
2021/08/03 11:35:35;;;;;;;3.15;1.30;;;33.40;17.50;;;;;;5076031;28;20085;-63
2021/08/03 11:38:05;;;;;;;3.17;1.25;;;33.40;17.60;;;;;;5076529;28;20079;-64
2021/08/03 11:40:33;;;;;;;10.30;1.23;;;33.10;29.60;;;;;;5074181;28;20160;-64
2021/08/03 11:43:00;;;;;;;5.07;1.50;;;33.40;16.70;;;;;;5075028;28;20129;-64
2021/08/03 11:45:27;;;;;;;7.03;1.45;;;;;;;;;;5078740;28;20376;-63
2021/08/03 11:48:00;;;;;;;4.68;1.20;;;33.50;39.80;;;;;;5079517;28;20062;-64
2021/08/03 11:50:30;;;;;;;3.05;1.20;;;33.30;16.80;;;;;;5075592;28;20458;-63
2021/08/03 11:53:05;;;;;;;5.95;0.93;;;33.30;41.00;;;;;;5075666;28;20141;-63
2021/08/03 11:55:33;;;;;;;4.40;1.00;;;33.10;30.00;;;;;;5076527;28;20084;-63
2021/08/03 11:57:59;;;;;;;6.93;1.30;;;33.20;32.60;;;;;;5076875;28;20074;-64
2021/08/03 12:00:26;;;;;;;4.40;1.08;;;33.30;39.10;;;;;;5075796;28;20625;-65
2021/08/03 12:02:58;;;;;;;5.00;1.38;;;33.40;33.10;;;;;;5077479;28;20411;-63
2021/08/03 12:05:37;;;;;;;5.60;1.13;;;33.00;18.60;;;;;;5075427;28;20063;-64
2021/08/03 12:08:09;;;;;;;8.40;1.50;;;33.10;46.00;;;;;;5076435;28;20048;-64
2021/08/03 12:10:44;;;;;;;9.45;1.60;;;32.90;47.00;;;;;;5076487;28;20033;-63
2021/08/03 12:13:25;;;;;;;8.25;1.10;;;32.70;33.90;;;;;;5072119;28;20060;-63
2021/08/03 12:15:54;;;;;;;6.63;1.33;;;32.80;17.80;;;;;;5076647;28;20083;-64
2021/08/03 12:18:20;;;;;;;8.52;1.23;;;33.00;36.60;;;;;;5076214;28;20434;-63
2021/08/03 12:20:50;;;;;;;3.03;0.70;;;33.10;38.20;;;;;;5075390;28;20059;-63
2021/08/03 12:23:21;;;;;;;5.68;1.02;;;32.90;18.00;;;;;;5078872;28;20020;-64
2021/08/03 12:25:54;;;;;;;4.50;0.90;;;33.00;31.70;;;;;;5076904;28;20069;-64
2021/08/03 12:28:37;;;;;;;3.42;0.93;;;32.90;35.40;;;;;;5076148;28;20064;-63
2021/08/03 12:31:27;;;;;;;3.40;0.80;;;32.30;34.40;;;;;;5077917;28;20069;-63
2021/08/03 12:34:07;;;;;;;4.78;1.20;;;33.10;35.90;;;;;;5076418;28;20074;-63
2021/08/03 12:36:52;;;;;;;3.80;1.00;;;32.90;17.80;;;;;;5076505;28;20100;-63
2021/08/03 12:39:41;;;;;;;3.53;1.02;;;32.90;34.60;;;;;;5075565;28;20153;-63
2021/08/03 12:42:38;;;;;;;5.03;1.20;;;32.90;16.80;;;;;;5075721;28;20504;-64
2021/08/03 12:45:14;;;;;;;3.35;1.20;;;32.80;17.50;;;;;;5073454;28;20122;-63
2021/08/03 12:47:58;;;;;;;3.28;1.20;;;32.80;17.40;;;;;;5072017;28;20154;-64
2021/08/03 12:50:25;;;;;;;6.78;1.40;;;32.60;41.10;;;;;;5077870;28;20442;-64
2021/08/03 12:53:02;;;;;;;8.93;1.40;;;32.80;17.50;;;;;;5074328;28;20414;-64
2021/08/03 12:55:54;;;;;;;10.60;1.10;;;32.50;28.80;;;;;;5075813;28;20079;-63
2021/08/03 12:58:47;;;;;;;8.75;1.40;;;33.40;26.20;;;;;;5078867;28;20094;-64
2021/08/03 13:01:18;;;;;;;3.97;1.35;;;32.60;37.90;;;;;;5074435;28;20065;-64
2021/08/03 13:03:46;;;;;;;8.23;1.13;;;32.50;42.00;;;;;;5074714;28;20073;-63
2021/08/03 13:06:13;;;;;;;11.30;2.00;;;33.20;39.10;;;;;;5075207;28;20071;-63